sensor_id;sensor_type;location;lat;lon;timestamp;pressure;altitude;pressure_sealevel;temperature;humidity
51249;BME280;39642;47.556;18.728;2023-04-28T00:01:20;100115.63;;;21.08;31.08
51249;BME280;39642;47.556;18.728;2023-04-28T00:03:46;100108.53;;;21.09;31.09
51249;BME280;39642;47.556;18.728;2023-04-28T00:06:13;100108.44;;;21.10;31.09
51249;BME280;39642;47.556;18.728;2023-04-28T00:08:39;100107.59;;;21.10;31.09
51249;BME280;39642;47.556;18.728;2023-04-28T00:11:11;100105.78;;;21.10;31.00
51249;BME280;39642;47.556;18.728;2023-04-28T00:13:37;100105.69;;;21.12;31.00
51249;BME280;39642;47.556;18.728;2023-04-28T00:16:04;100106.56;;;21.12;30.98
51249;BME280;39642;47.556;18.728;2023-04-28T00:18:30;100109.22;;;21.12;30.96
51249;BME280;39642;47.556;18.728;2023-04-28T00:20:57;100096.81;;;21.13;30.96
51249;BME280;39642;47.556;18.728;2023-04-28T00:23:23;100096.81;;;21.13;30.89
51249;BME280;39642;47.556;18.728;2023-04-28T00:25:51;100095.88;;;21.14;30.92
51249;BME280;39642;47.556;18.728;2023-04-28T00:28:17;100096.75;;;21.14;30.91
51249;BME280;39642;47.556;18.728;2023-04-28T00:30:42;100087.91;;;21.14;30.88
51249;BME280;39642;47.556;18.728;2023-04-28T00:33:08;100089.72;;;21.13;30.86
51249;BME280;39642;47.556;18.728;2023-04-28T00:35:34;100097.66;;;21.13;30.88
51249;BME280;39642;47.556;18.728;2023-04-28T00:38:00;100097.59;;;21.15;30.87
51249;BME280;39642;47.556;18.728;2023-04-28T00:40:36;100095.03;;;21.13;30.84
51249;BME280;39642;47.556;18.728;2023-04-28T00:43:02;100095.03;;;21.13;30.86
51249;BME280;39642;47.556;18.728;2023-04-28T00:45:28;100088.03;;;21.12;30.86
51249;BME280;39642;47.556;18.728;2023-04-28T00:47:55;100095.03;;;21.13;30.83
51249;BME280;39642;47.556;18.728;2023-04-28T00:50:24;100093.31;;;21.12;30.85
51249;BME280;39642;47.556;18.728;2023-04-28T00:52:51;100089.81;;;21.12;30.82
51249;BME280;39642;47.556;18.728;2023-04-28T00:55:18;100090.75;;;21.11;30.80
51249;BME280;39642;47.556;18.728;2023-04-28T00:57:44;100099.53;;;21.11;30.81
51249;BME280;39642;47.556;18.728;2023-04-28T01:00:11;100097.84;;;21.10;30.84
51249;BME280;39642;47.556;18.728;2023-04-28T01:02:37;100094.25;;;21.11;30.77
51249;BME280;39642;47.556;18.728;2023-04-28T01:05:04;100092.56;;;21.10;30.78
51249;BME280;39642;47.556;18.728;2023-04-28T01:07:30;100097.00;;;21.10;30.80
51249;BME280;39642;47.556;18.728;2023-04-28T01:09:55;100104.94;;;21.10;30.78
51249;BME280;39642;47.556;18.728;2023-04-28T01:12:21;100103.22;;;21.09;30.76
51249;BME280;39642;47.556;18.728;2023-04-28T01:14:48;100105.88;;;21.09;30.78
51249;BME280;39642;47.556;18.728;2023-04-28T01:17:15;100103.22;;;21.09;30.76
51249;BME280;39642;47.556;18.728;2023-04-28T01:19:41;100100.56;;;21.09;30.73
51249;BME280;39642;47.556;18.728;2023-04-28T01:22:07;100104.94;;;21.10;30.71
51249;BME280;39642;47.556;18.728;2023-04-28T01:24:36;100104.06;;;21.09;30.72
51249;BME280;39642;47.556;18.728;2023-04-28T01:27:01;100101.34;;;21.11;30.71
51249;BME280;39642;47.556;18.728;2023-04-28T01:29:27;100106.66;;;21.11;30.70
51249;BME280;39642;47.556;18.728;2023-04-28T01:31:53;100111.94;;;21.11;30.64
51249;BME280;39642;47.556;18.728;2023-04-28T01:34:19;100113.62;;;21.12;30.65
51249;BME280;39642;47.556;18.728;2023-04-28T01:36:45;100107.50;;;21.11;30.64
51249;BME280;39642;47.556;18.728;2023-04-28T01:39:11;100105.69;;;21.12;30.56
51249;BME280;39642;47.556;18.728;2023-04-28T01:41:37;100111.87;;;21.12;30.58
51249;BME280;39642;47.556;18.728;2023-04-28T01:44:03;100109.22;;;21.12;30.59
51249;BME280;39642;47.556;18.728;2023-04-28T01:46:30;100109.09;;;21.14;30.56
51249;BME280;39642;47.556;18.728;2023-04-28T01:48:56;100107.41;;;21.13;30.56
51249;BME280;39642;47.556;18.728;2023-04-28T01:51:22;100104.75;;;21.13;30.56
51249;BME280;39642;47.556;18.728;2023-04-28T01:53:48;100106.56;;;21.12;30.51
51249;BME280;39642;47.556;18.728;2023-04-28T01:56:14;100110.91;;;21.13;30.51
51249;BME280;39642;47.556;18.728;2023-04-28T01:58:39;100112.72;;;21.13;30.56
51249;BME280;39642;47.556;18.728;2023-04-28T02:01:05;100110.06;;;21.13;30.56
51249;BME280;39642;47.556;18.728;2023-04-28T02:03:31;100118.00;;;21.13;30.54
51249;BME280;39642;47.556;18.728;2023-04-28T02:05:57;100119.81;;;21.12;30.52
51249;BME280;39642;47.556;18.728;2023-04-28T02:08:23;100116.28;;;21.12;30.48
51249;BME280;39642;47.556;18.728;2023-04-28T02:10:49;100107.50;;;21.11;30.50
51249;BME280;39642;47.556;18.728;2023-04-28T02:13:15;100112.78;;;21.11;30.48
51249;BME280;39642;47.556;18.728;2023-04-28T02:15:42;100111.94;;;21.11;30.50
51249;BME280;39642;47.556;18.728;2023-04-28T02:18:11;100113.75;;;21.10;30.52
51249;BME280;39642;47.556;18.728;2023-04-28T02:20:37;100117.31;;;21.09;30.47
51249;BME280;39642;47.556;18.728;2023-04-28T02:23:03;100115.53;;;21.10;30.51
51249;BME280;39642;47.556;18.728;2023-04-28T02:25:29;100119.97;;;21.09;30.51
51249;BME280;39642;47.556;18.728;2023-04-28T02:27:55;100113.81;;;21.09;30.51
51249;BME280;39642;47.556;18.728;2023-04-28T02:30:21;100115.53;;;21.10;30.51
51249;BME280;39642;47.556;18.728;2023-04-28T02:32:47;100119.97;;;21.09;30.51
51249;BME280;39642;47.556;18.728;2023-04-28T02:35:13;100119.97;;;21.09;30.46
51249;BME280;39642;47.556;18.728;2023-04-28T02:37:39;100118.09;;;21.11;30.42
51249;BME280;39642;47.556;18.728;2023-04-28T02:40:06;100112.78;;;21.11;30.39
51249;BME280;39642;47.556;18.728;2023-04-28T02:42:32;100112.78;;;21.11;30.43
51249;BME280;39642;47.556;18.728;2023-04-28T02:44:58;100109.28;;;21.11;30.42
51249;BME280;39642;47.556;18.728;2023-04-28T02:47:24;100122.47;;;21.12;30.36
51249;BME280;39642;47.556;18.728;2023-04-28T02:49:49;100111.87;;;21.12;30.35
51249;BME280;39642;47.556;18.728;2023-04-28T02:52:15;100117.06;;;21.14;30.32
51249;BME280;39642;47.556;18.728;2023-04-28T02:54:41;100114.41;;;21.14;30.27
51249;BME280;39642;47.556;18.728;2023-04-28T02:57:07;100125.00;;;21.14;30.29
51249;BME280;39642;47.556;18.728;2023-04-28T02:59:33;100123.22;;;21.14;30.32
51249;BME280;39642;47.556;18.728;2023-04-28T03:02:00;100120.56;;;21.14;30.26
51249;BME280;39642;47.556;18.728;2023-04-28T03:04:26;100117.94;;;21.14;30.32
51249;BME280;39642;47.556;18.728;2023-04-28T03:06:52;100119.69;;;21.14;30.26
51249;BME280;39642;47.556;18.728;2023-04-28T03:09:17;100127.66;;;21.14;30.28
51249;BME280;39642;47.556;18.728;2023-04-28T03:11:43;100121.50;;;21.13;30.29
51249;BME280;39642;47.556;18.728;2023-04-28T03:14:09;100121.50;;;21.13;30.28
51249;BME280;39642;47.556;18.728;2023-04-28T03:16:35;100120.66;;;21.13;30.25
51249;BME280;39642;47.556;18.728;2023-04-28T03:19:02;100120.72;;;21.11;30.27
51249;BME280;39642;47.556;18.728;2023-04-28T03:21:28;100124.22;;;21.12;30.26
51249;BME280;39642;47.556;18.728;2023-04-28T03:23:54;100124.22;;;21.12;30.23
51249;BME280;39642;47.556;18.728;2023-04-28T03:26:20;100129.63;;;21.10;30.23
51249;BME280;39642;47.556;18.728;2023-04-28T03:28:46;100119.88;;;21.11;30.22
51249;BME280;39642;47.556;18.728;2023-04-28T03:31:14;100110.25;;;21.10;30.24
51249;BME280;39642;47.556;18.728;2023-04-28T03:33:40;100119.97;;;21.09;30.14
51249;BME280;39642;47.556;18.728;2023-04-28T03:36:07;100120.84;;;21.10;30.23
51249;BME280;39642;47.556;18.728;2023-04-28T03:38:33;100119.97;;;21.09;30.25
51249;BME280;39642;47.556;18.728;2023-04-28T03:40:58;100119.13;;;21.09;30.24
51249;BME280;39642;47.556;18.728;2023-04-28T03:43:24;100119.13;;;21.09;30.22
51249;BME280;39642;47.556;18.728;2023-04-28T03:45:50;100112.97;;;21.08;30.16
51249;BME280;39642;47.556;18.728;2023-04-28T03:48:16;100115.63;;;21.08;30.20
51249;BME280;39642;47.556;18.728;2023-04-28T03:50:42;100117.31;;;21.09;30.16
51249;BME280;39642;47.556;18.728;2023-04-28T03:53:10;100118.25;;;21.08;30.16
51249;BME280;39642;47.556;18.728;2023-04-28T03:55:36;100120.06;;;21.08;30.16
51249;BME280;39642;47.556;18.728;2023-04-28T03:58:02;100118.25;;;21.08;30.17
51249;BME280;39642;47.556;18.728;2023-04-28T04:00:28;100121.84;;;21.07;30.16
51249;BME280;39642;47.556;18.728;2023-04-28T04:02:54;100127.06;;;21.09;30.08
51249;BME280;39642;47.556;18.728;2023-04-28T04:05:19;100128.00;;;21.08;30.10
51249;BME280;39642;47.556;18.728;2023-04-28T04:07:45;100132.44;;;21.07;30.11
51249;BME280;39642;47.556;18.728;2023-04-28T04:10:11;100128.84;;;21.08;30.08
51249;BME280;39642;47.556;18.728;2023-04-28T04:12:37;100136.72;;;21.10;30.09
51249;BME280;39642;47.556;18.728;2023-04-28T04:15:03;100135.00;;;21.09;30.07
51249;BME280;39642;47.556;18.728;2023-04-28T04:17:29;100135.00;;;21.09;30.13
51249;BME280;39642;47.556;18.728;2023-04-28T04:19:56;100141.13;;;21.09;30.20
51249;BME280;39642;47.556;18.728;2023-04-28T04:22:21;100142.03;;;21.10;30.06
51249;BME280;39642;47.556;18.728;2023-04-28T04:24:47;100127.81;;;21.11;30.01
51249;BME280;39642;47.556;18.728;2023-04-28T04:27:13;100129.53;;;21.12;30.04
51249;BME280;39642;47.556;18.728;2023-04-28T04:29:39;100134.81;;;21.12;30.04
51249;BME280;39642;47.556;18.728;2023-04-28T04:32:05;100131.25;;;21.13;30.00
51249;BME280;39642;47.556;18.728;2023-04-28T04:34:31;100125.09;;;21.12;29.99
51249;BME280;39642;47.556;18.728;2023-04-28T04:36:57;100131.16;;;21.14;29.96
51249;BME280;39642;47.556;18.728;2023-04-28T04:39:23;100124.91;;;21.15;30.00
51249;BME280;39642;47.556;18.728;2023-04-28T04:41:49;100124.06;;;21.15;29.96
51249;BME280;39642;47.556;18.728;2023-04-28T04:44:14;100131.91;;;21.16;29.95
51249;BME280;39642;47.556;18.728;2023-04-28T04:46:40;100129.19;;;21.18;29.91
51249;BME280;39642;47.556;18.728;2023-04-28T04:49:06;100139.63;;;21.21;30.34
51249;BME280;39642;47.556;18.728;2023-04-28T04:51:32;100143.19;;;21.20;30.75
51249;BME280;39642;47.556;18.728;2023-04-28T04:53:58;100149.34;;;21.20;30.22
51249;BME280;39642;47.556;18.728;2023-04-28T04:56:24;100147.47;;;21.23;30.04
51249;BME280;39642;47.556;18.728;2023-04-28T04:58:51;100142.94;;;21.25;30.28
51249;BME280;39642;47.556;18.728;2023-04-28T05:01:17;100144.66;;;21.26;30.30
51249;BME280;39642;47.556;18.728;2023-04-28T05:03:43;100143.72;;;21.27;30.34
51249;BME280;39642;47.556;18.728;2023-04-28T05:06:14;100153.28;;;21.29;30.30
51249;BME280;39642;47.556;18.728;2023-04-28T05:08:40;100151.41;;;21.31;30.68
51249;BME280;39642;47.556;18.728;2023-04-28T05:11:06;100146.09;;;21.31;30.55
51249;BME280;39642;47.556;18.728;2023-04-28T05:13:32;100143.44;;;21.31;30.69
51249;BME280;39642;47.556;18.728;2023-04-28T05:15:58;100157.47;;;21.33;30.42
51249;BME280;39642;47.556;18.728;2023-04-28T05:18:24;100150.38;;;21.34;31.29
51249;BME280;39642;47.556;18.728;2023-04-28T05:20:50;100151.12;;;21.36;30.71
51249;BME280;39642;47.556;18.728;2023-04-28T05:23:16;100158.25;;;21.35;30.71
51249;BME280;39642;47.556;18.728;2023-04-28T05:25:41;100160.03;;;21.35;30.76
51249;BME280;39642;47.556;18.728;2023-04-28T05:28:08;100152.16;;;21.33;31.33
51249;BME280;39642;47.556;18.728;2023-04-28T05:30:34;100143.38;;;21.33;31.30
51249;BME280;39642;47.556;18.728;2023-04-28T05:33:00;100157.38;;;21.35;32.51
51249;BME280;39642;47.556;18.728;2023-04-28T05:35:26;100156.63;;;21.33;31.96
51249;BME280;39642;47.556;18.728;2023-04-28T05:37:52;100159.28;;;21.33;31.54
51249;BME280;39642;47.556;18.728;2023-04-28T05:40:18;100153.00;;;21.34;31.49
51249;BME280;39642;47.556;18.728;2023-04-28T05:42:44;100155.78;;;21.32;31.48
51249;BME280;39642;47.556;18.728;2023-04-28T05:45:10;100170.78;;;21.32;30.93
51249;BME280;39642;47.556;18.728;2023-04-28T05:47:36;100179.63;;;21.32;31.25
51249;BME280;39642;47.556;18.728;2023-04-28T05:50:02;100173.53;;;21.30;30.93
51249;BME280;39642;47.556;18.728;2023-04-28T05:52:28;100173.69;;;21.27;31.08
51249;BME280;39642;47.556;18.728;2023-04-28T05:54:54;100173.81;;;21.26;30.74
51249;BME280;39642;47.556;18.728;2023-04-28T05:57:20;100175.75;;;21.22;30.88
51249;BME280;39642;47.556;18.728;2023-04-28T05:59:46;100166.97;;;21.21;31.49
51249;BME280;39642;47.556;18.728;2023-04-28T06:02:12;100169.50;;;21.23;31.62
51249;BME280;39642;47.556;18.728;2023-04-28T06:04:38;100174.72;;;21.25;31.23
51249;BME280;39642;47.556;18.728;2023-04-28T06:07:04;100172.00;;;21.26;31.24
51249;BME280;39642;47.556;18.728;2023-04-28T06:09:30;100173.69;;;21.27;31.40
51249;BME280;39642;47.556;18.728;2023-04-28T06:11:56;100170.13;;;21.28;31.24
51249;BME280;39642;47.556;18.728;2023-04-28T06:14:22;100176.34;;;21.27;31.39
51249;BME280;39642;47.556;18.728;2023-04-28T06:16:49;100168.50;;;21.26;31.23
51249;BME280;39642;47.556;18.728;2023-04-28T06:19:15;100172.00;;;21.26;30.72
51249;BME280;39642;47.556;18.728;2023-04-28T06:21:44;100178.12;;;21.27;31.31
51249;BME280;39642;47.556;18.728;2023-04-28T06:24:10;100176.34;;;21.27;31.47
51249;BME280;39642;47.556;18.728;2023-04-28T06:26:36;100178.12;;;21.27;31.01
51249;BME280;39642;47.556;18.728;2023-04-28T06:29:02;100179.94;;;21.26;31.34
51249;BME280;39642;47.556;18.728;2023-04-28T06:31:28;100178.12;;;21.27;31.48
51249;BME280;39642;47.556;18.728;2023-04-28T06:33:54;100183.44;;;21.27;31.46
51249;BME280;39642;47.556;18.728;2023-04-28T06:36:20;100177.03;;;21.31;31.75
51249;BME280;39642;47.556;18.728;2023-04-28T06:38:46;100181.38;;;21.32;31.07
51249;BME280;39642;47.556;18.728;2023-04-28T06:41:12;100186.78;;;21.30;31.24
51249;BME280;39642;47.556;18.728;2023-04-28T06:43:38;100184.22;;;21.29;31.33
51249;BME280;39642;47.556;18.728;2023-04-28T06:46:04;100193.00;;;21.29;31.30
51249;BME280;39642;47.556;18.728;2023-04-28T06:48:30;100188.56;;;21.30;31.56
51249;BME280;39642;47.556;18.728;2023-04-28T06:50:56;100186.88;;;21.29;31.40
51249;BME280;39642;47.556;18.728;2023-04-28T06:53:22;100180.88;;;21.25;31.34
51249;BME280;39642;47.556;18.728;2023-04-28T06:55:47;100178.12;;;21.27;31.16
51249;BME280;39642;47.556;18.728;2023-04-28T06:58:13;100179.09;;;21.26;31.66
51249;BME280;39642;47.556;18.728;2023-04-28T07:00:40;100178.06;;;21.28;30.96
51249;BME280;39642;47.556;18.728;2023-04-28T07:03:06;100175.31;;;21.30;30.99
51249;BME280;39642;47.556;18.728;2023-04-28T07:05:32;100177.03;;;21.31;31.05
51249;BME280;39642;47.556;18.728;2023-04-28T07:07:58;100175.16;;;21.33;31.13
51249;BME280;39642;47.556;18.728;2023-04-28T07:10:24;100165.41;;;21.33;31.18
51249;BME280;39642;47.556;18.728;2023-04-28T07:12:50;100168.91;;;21.34;30.46
51249;BME280;39642;47.556;18.728;2023-04-28T07:15:17;100169.75;;;21.34;30.47
51249;BME280;39642;47.556;18.728;2023-04-28T07:17:43;100172.31;;;21.36;30.56
51249;BME280;39642;47.556;18.728;2023-04-28T07:20:09;100171.47;;;21.35;30.68
51249;BME280;39642;47.556;18.728;2023-04-28T07:22:35;100163.63;;;21.34;30.57
51249;BME280;39642;47.556;18.728;2023-04-28T07:25:01;100168.91;;;21.34;30.79
51249;BME280;39642;47.556;18.728;2023-04-28T07:27:27;100167.97;;;21.35;30.63
51249;BME280;39642;47.556;18.728;2023-04-28T07:29:53;100166.37;;;21.32;30.54
51249;BME280;39642;47.556;18.728;2023-04-28T07:32:18;100164.56;;;21.33;30.72
51249;BME280;39642;47.556;18.728;2023-04-28T07:34:44;100160.03;;;21.35;30.85
51249;BME280;39642;47.556;18.728;2023-04-28T07:37:11;100159.16;;;21.34;31.08
51249;BME280;39642;47.556;18.728;2023-04-28T07:39:37;100165.22;;;21.36;30.98
51249;BME280;39642;47.556;18.728;2023-04-28T07:42:05;100152.09;;;21.35;30.53
51249;BME280;39642;47.556;18.728;2023-04-28T07:44:30;100156.44;;;21.36;30.73
51249;BME280;39642;47.556;18.728;2023-04-28T07:46:58;100146.69;;;21.36;30.83
51249;BME280;39642;47.556;18.728;2023-04-28T07:49:26;100137.91;;;21.36;30.16
51249;BME280;39642;47.556;18.728;2023-04-28T07:52:00;100140.62;;;21.34;31.86
51249;BME280;39642;47.556;18.728;2023-04-28T07:54:27;100134.47;;;21.34;30.68
51249;BME280;39642;47.556;18.728;2023-04-28T07:56:55;100132.59;;;21.36;30.19
51249;BME280;39642;47.556;18.728;2023-04-28T07:59:21;100128.34;;;21.33;30.36
51249;BME280;39642;47.556;18.728;2023-04-28T08:01:47;100123.88;;;21.34;30.38
51249;BME280;39642;47.556;18.728;2023-04-28T08:04:12;100116.78;;;21.34;30.07
51249;BME280;39642;47.556;18.728;2023-04-28T08:06:39;100113.28;;;21.34;30.27
51249;BME280;39642;47.556;18.728;2023-04-28T08:09:05;100116.88;;;21.33;30.43
51249;BME280;39642;47.556;18.728;2023-04-28T08:11:31;100112.44;;;21.33;29.84
51249;BME280;39642;47.556;18.728;2023-04-28T08:13:58;100104.41;;;21.35;30.31
51249;BME280;39642;47.556;18.728;2023-04-28T08:16:28;100106.94;;;21.36;30.46
51249;BME280;39642;47.556;18.728;2023-04-28T08:18:54;100106.88;;;21.38;30.29
51249;BME280;39642;47.556;18.728;2023-04-28T08:21:20;100107.84;;;21.37;30.06
51249;BME280;39642;47.556;18.728;2023-04-28T08:23:46;100107.84;;;21.37;30.71
51249;BME280;39642;47.556;18.728;2023-04-28T08:26:12;100107.84;;;21.37;30.92
51249;BME280;39642;47.556;18.728;2023-04-28T08:28:38;100092.78;;;21.37;31.98
51249;BME280;39642;47.556;18.728;2023-04-28T08:31:04;100097.94;;;21.40;31.40
51249;BME280;39642;47.556;18.728;2023-04-28T08:33:30;100091.59;;;21.43;32.08
51249;BME280;39642;47.556;18.728;2023-04-28T08:35:56;100090.56;;;21.46;31.81
51249;BME280;39642;47.556;18.728;2023-04-28T08:38:22;100095.78;;;21.47;31.97
51249;BME280;39642;47.556;18.728;2023-04-28T08:40:50;100090.41;;;21.49;31.78
51249;BME280;39642;47.556;18.728;2023-04-28T08:43:16;100097.25;;;21.53;32.03
51249;BME280;39642;47.556;18.728;2023-04-28T08:45:43;100090.12;;;21.53;30.58
51249;BME280;39642;47.556;18.728;2023-04-28T08:48:17;100096.19;;;21.55;30.08
51249;BME280;39642;47.556;18.728;2023-04-28T08:50:49;100079.47;;;21.55;30.60
51249;BME280;39642;47.556;18.728;2023-04-28T08:53:22;100086.62;;;21.53;29.63
51249;BME280;39642;47.556;18.728;2023-04-28T08:55:56;100085.19;;;21.47;29.27
51249;BME280;39642;47.556;18.728;2023-04-28T08:58:23;100089.81;;;21.44;28.90
51249;BME280;39642;47.556;18.728;2023-04-28T09:00:50;100089.06;;;21.41;28.75
51249;BME280;39642;47.556;18.728;2023-04-28T09:03:17;100086.44;;;21.40;27.79
51249;BME280;39642;47.556;18.728;2023-04-28T09:05:43;100092.28;;;21.31;28.66
51249;BME280;39642;47.556;18.728;2023-04-28T09:08:09;100086.47;;;21.24;28.29
51249;BME280;39642;47.556;18.728;2023-04-28T09:10:37;100089.38;;;21.19;27.58
51249;BME280;39642;47.556;18.728;2023-04-28T09:13:03;100092.19;;;21.16;27.64
51249;BME280;39642;47.556;18.728;2023-04-28T09:15:37;100092.44;;;21.12;27.15
51249;BME280;39642;47.556;18.728;2023-04-28T09:18:07;100089.28;;;21.05;26.55
51249;BME280;39642;47.556;18.728;2023-04-28T09:20:35;100085.22;;;20.99;26.15
51249;BME280;39642;47.556;18.728;2023-04-28T09:23:18;100089.47;;;21.02;26.68
51249;BME280;39642;47.556;18.728;2023-04-28T09:28:27;100091.59;;;21.11;26.88
51249;BME280;39642;47.556;18.728;2023-04-28T09:30:53;100084.44;;;21.13;27.26
51249;BME280;39642;47.556;18.728;2023-04-28T09:33:19;100086.91;;;21.16;28.28
51249;BME280;39642;47.556;18.728;2023-04-28T09:35:46;100083.41;;;21.16;26.73
51249;BME280;39642;47.556;18.728;2023-04-28T09:38:14;100082.56;;;21.15;26.65
51249;BME280;39642;47.556;18.728;2023-04-28T09:41:06;100080.09;;;21.12;26.61
51249;BME280;39642;47.556;18.728;2023-04-28T09:43:33;100071.72;;;21.04;26.93
51249;BME280;39642;47.556;18.728;2023-04-28T09:46:03;100080.25;;;20.93;26.35
51249;BME280;39642;47.556;18.728;2023-04-28T09:48:36;100069.31;;;20.84;25.81
51249;BME280;39642;47.556;18.728;2023-04-28T09:51:04;100073.25;;;20.76;26.44
51249;BME280;39642;47.556;18.728;2023-04-28T09:53:31;100067.78;;;20.79;28.31
51249;BME280;39642;47.556;18.728;2023-04-28T09:55:59;100070.87;;;20.88;28.15
51249;BME280;39642;47.556;18.728;2023-04-28T09:58:27;100065.91;;;20.97;28.95
51249;BME280;39642;47.556;18.728;2023-04-28T10:00:55;100057.44;;;21.07;28.25
51249;BME280;39642;47.556;18.728;2023-04-28T10:03:23;100054.37;;;21.14;29.08
51249;BME280;39642;47.556;18.728;2023-04-28T10:05:50;100050.44;;;21.21;27.18
51249;BME280;39642;47.556;18.728;2023-04-28T10:08:19;100043.06;;;21.27;29.29
51249;BME280;39642;47.556;18.728;2023-04-28T10:10:46;100040.16;;;21.31;29.62
51249;BME280;39642;47.556;18.728;2023-04-28T10:13:17;100043.50;;;21.35;28.50
51249;BME280;39642;47.556;18.728;2023-04-28T10:15:44;100044.25;;;21.37;26.90
51249;BME280;39642;47.556;18.728;2023-04-28T10:18:14;100038.72;;;21.41;28.52
51249;BME280;39642;47.556;18.728;2023-04-28T10:20:43;100033.31;;;21.43;26.40
51249;BME280;39642;47.556;18.728;2023-04-28T10:26:01;100029.53;;;21.47;26.36
51249;BME280;39642;47.556;18.728;2023-04-28T10:28:28;100027.75;;;21.48;25.72
51249;BME280;39642;47.556;18.728;2023-04-28T10:31:10;100025.97;;;21.48;27.39
51249;BME280;39642;47.556;18.728;2023-04-28T10:33:37;100018.03;;;21.48;27.81
51249;BME280;39642;47.556;18.728;2023-04-28T10:36:04;100011.84;;;21.48;27.96
51249;BME280;39642;47.556;18.728;2023-04-28T10:38:30;100000.41;;;21.47;27.81
51249;BME280;39642;47.556;18.728;2023-04-28T10:40:56;100002.22;;;21.47;28.24
51249;BME280;39642;47.556;18.728;2023-04-28T10:43:38;100004.28;;;21.41;26.79
51249;BME280;39642;47.556;18.728;2023-04-28T10:46:06;100009.87;;;21.21;25.20
51249;BME280;39642;47.556;18.728;2023-04-28T10:56:17;99985.16;;;20.90;25.67
51249;BME280;39642;47.556;18.728;2023-04-28T10:58:48;99987.09;;;20.71;24.64
51249;BME280;39642;47.556;18.728;2023-04-28T11:06:25;99977.00;;;20.46;25.38
51249;BME280;39642;47.556;18.728;2023-04-28T11:08:52;99974.56;;;20.43;26.72
51249;BME280;39642;47.556;18.728;2023-04-28T11:11:24;99967.28;;;20.46;28.46
51249;BME280;39642;47.556;18.728;2023-04-28T11:13:53;99953.78;;;20.51;26.50
51249;BME280;39642;47.556;18.728;2023-04-28T11:16:21;99956.13;;;20.57;26.28
51249;BME280;39642;47.556;18.728;2023-04-28T11:21:19;99957.75;;;20.59;25.27
51249;BME280;39642;47.556;18.728;2023-04-28T11:23:46;99967.66;;;20.56;26.14
51249;BME280;39642;47.556;18.728;2023-04-28T11:26:12;99963.28;;;20.55;27.09
51249;BME280;39642;47.556;18.728;2023-04-28T11:28:55;99971.28;;;20.53;26.54
51249;BME280;39642;47.556;18.728;2023-04-28T11:31:23;99966.88;;;20.54;25.81
51249;BME280;39642;47.556;18.728;2023-04-28T11:33:56;99961.84;;;20.49;25.97
51249;BME280;39642;47.556;18.728;2023-04-28T11:36:30;99948.00;;;20.44;26.79
51249;BME280;39642;47.556;18.728;2023-04-28T11:38:58;99947.41;;;20.39;26.23
51249;BME280;39642;47.556;18.728;2023-04-28T11:41:24;99945.47;;;20.43;27.37
51249;BME280;39642;47.556;18.728;2023-04-28T11:43:52;99955.59;;;20.50;27.91
51249;BME280;39642;47.556;18.728;2023-04-28T11:46:19;99949.06;;;20.57;28.34
51249;BME280;39642;47.556;18.728;2023-04-28T11:48:45;99942.41;;;20.66;29.03
51249;BME280;39642;47.556;18.728;2023-04-28T11:51:30;99945.63;;;20.71;28.39
51249;BME280;39642;47.556;18.728;2023-04-28T11:53:58;99936.41;;;20.78;29.41
51249;BME280;39642;47.556;18.728;2023-04-28T11:56:26;99934.44;;;20.82;29.87
51249;BME280;39642;47.556;18.728;2023-04-28T11:59:11;99943.97;;;20.85;29.51
51249;BME280;39642;47.556;18.728;2023-04-28T12:01:46;99941.94;;;20.90;29.19
51249;BME280;39642;47.556;18.728;2023-04-28T12:04:12;99938.16;;;20.94;28.30
51249;BME280;39642;47.556;18.728;2023-04-28T12:06:40;99932.69;;;20.97;28.61
51249;BME280;39642;47.556;18.728;2023-04-28T12:09:16;99934.41;;;20.98;28.45
51249;BME280;39642;47.556;18.728;2023-04-28T12:14:19;99923.47;;;21.04;29.50
51249;BME280;39642;47.556;18.728;2023-04-28T12:16:45;99914.47;;;21.07;30.67
51249;BME280;39642;47.556;18.728;2023-04-28T12:19:13;99908.16;;;21.09;29.80
51249;BME280;39642;47.556;18.728;2023-04-28T12:21:40;99911.66;;;21.10;29.25
51249;BME280;39642;47.556;18.728;2023-04-28T12:24:18;99900.19;;;21.09;29.57
51249;BME280;39642;47.556;18.728;2023-04-28T12:26:44;99899.28;;;21.10;29.93
51249;BME280;39642;47.556;18.728;2023-04-28T12:29:39;99904.56;;;21.10;29.50
51249;BME280;39642;47.556;18.728;2023-04-28T12:32:09;99894.81;;;21.11;29.87
51249;BME280;39642;47.556;18.728;2023-04-28T12:34:37;99885.19;;;21.10;30.65
51249;BME280;39642;47.556;18.728;2023-04-28T12:37:05;99882.72;;;21.07;30.02
51249;BME280;39642;47.556;18.728;2023-04-28T12:39:32;99868.69;;;21.05;30.85
51249;BME280;39642;47.556;18.728;2023-04-28T12:41:59;99863.41;;;21.05;31.24
51249;BME280;39642;47.556;18.728;2023-04-28T12:44:31;99855.31;;;21.08;32.65
51249;BME280;39642;47.556;18.728;2023-04-28T12:47:07;99851.50;;;21.12;34.24
51249;BME280;39642;47.556;18.728;2023-04-28T12:49:33;99841.69;;;21.14;34.80
51249;BME280;39642;47.556;18.728;2023-04-28T12:51:59;99837.25;;;21.14;33.72
51249;BME280;39642;47.556;18.728;2023-04-28T12:54:25;99824.94;;;21.13;32.99
51249;BME280;39642;47.556;18.728;2023-04-28T12:56:52;99816.16;;;21.13;33.49
51249;BME280;39642;47.556;18.728;2023-04-28T12:59:19;99813.50;;;21.13;33.42
51249;BME280;39642;47.556;18.728;2023-04-28T13:01:46;99819.66;;;21.13;33.62
51249;BME280;39642;47.556;18.728;2023-04-28T13:04:12;99819.66;;;21.13;33.46